createdAt,value
2017-04-23T00:00:07.839Z,0
2017-04-23T00:01:07.871Z,0
2017-04-23T00:02:06.948Z,0
2017-04-23T00:03:08.160Z,0
2017-04-23T00:04:07.936Z,0
2017-04-23T00:05:07.679Z,0
2017-04-23T00:06:07.068Z,0
2017-04-23T00:07:07.717Z,0
2017-04-23T00:08:08.307Z,0
2017-04-23T00:09:07.762Z,0
2017-04-23T00:10:07.778Z,0
2017-04-23T00:11:07.803Z,0
2017-04-23T00:12:07.840Z,0
2017-04-23T00:13:08.420Z,0
2017-04-23T00:14:07.894Z,0
2017-04-23T00:15:07.927Z,0
2017-04-23T00:16:07.955Z,0
2017-04-23T00:17:07.976Z,0
2017-04-23T00:18:08.568Z,0
2017-04-23T00:19:08.365Z,0
2017-04-23T00:20:08.363Z,0
2017-04-23T00:21:08.394Z,0
2017-04-23T00:22:08.430Z,0
2017-04-23T00:23:08.704Z,0
2017-04-23T00:24:08.165Z,0
2017-04-23T00:25:08.193Z,0
2017-04-23T00:26:08.517Z,0
2017-04-23T00:27:08.559Z,0
2017-04-23T00:28:08.833Z,0
2017-04-23T00:29:08.290Z,0
2017-04-23T00:30:08.326Z,0
2017-04-23T00:31:08.654Z,0
2017-04-23T00:32:08.679Z,0
2017-04-23T00:33:08.661Z,0
2017-04-23T00:34:08.733Z,0
2017-04-23T00:35:08.761Z,0
2017-04-23T00:36:08.807Z,0
2017-04-23T00:37:08.502Z,0
2017-04-23T00:38:09.112Z,0
2017-04-23T00:39:08.869Z,0
2017-04-23T00:40:08.590Z,0
2017-04-23T00:41:08.616Z,0
2017-04-23T00:42:08.952Z,0
2017-04-23T00:43:09.232Z,0
2017-04-23T00:44:08.999Z,0
2017-04-23T00:45:08.408Z,0
2017-04-23T00:46:08.746Z,0
2017-04-23T00:47:09.083Z,0
2017-04-23T00:48:09.360Z,0
2017-04-23T00:49:08.836Z,0
2017-04-23T00:50:09.165Z,0
2017-04-23T00:51:09.210Z,0
2017-04-23T00:52:08.902Z,0
2017-04-23T00:53:08.874Z,0
2017-04-23T00:54:08.959Z,0
2017-04-23T00:55:09.296Z,0
2017-04-23T00:56:09.005Z,0
2017-04-23T00:57:09.033Z,0
2017-04-23T00:58:09.315Z,0
2017-04-23T00:59:09.394Z,0
2017-04-23T01:00:09.435Z,0
2017-04-23T01:01:09.446Z,0
2017-04-23T01:02:09.173Z,0
2017-04-23T01:03:09.442Z,0
2017-04-23T01:04:09.532Z,0
2017-04-23T01:05:09.553Z,0
2017-04-23T01:06:08.958Z,0
2017-04-23T01:07:09.309Z,0
2017-04-23T01:08:09.890Z,0
2017-04-23T01:09:09.347Z,0
2017-04-23T01:10:09.705Z,0
2017-04-23T01:11:09.724Z,0
2017-04-23T01:12:09.741Z,0
2017-04-23T01:13:09.702Z,0
2017-04-23T01:14:09.484Z,0
2017-04-23T01:15:09.831Z,0
2017-04-23T01:16:09.531Z,0
2017-04-23T01:17:09.565Z,0
2017-04-23T01:18:09.844Z,0
2017-04-23T01:19:09.610Z,0
2017-04-23T01:20:09.660Z,0
2017-04-23T01:21:09.980Z,0
2017-04-23T01:22:10.016Z,0
2017-04-23T01:23:09.966Z,0
2017-04-23T01:24:09.766Z,0
2017-04-23T01:25:09.779Z,0
2017-04-23T01:26:10.111Z,0
2017-04-23T01:27:09.821Z,0
2017-04-23T01:28:10.104Z,0
2017-04-23T01:29:09.877Z,0
2017-04-23T01:30:09.901Z,0
2017-04-23T01:31:10.239Z,0
2017-04-23T01:32:09.959Z,0
2017-04-23T01:33:10.229Z,0
2017-04-23T01:34:09.385Z,0
2017-04-23T01:35:10.030Z,0
2017-04-23T01:36:10.059Z,0
2017-04-23T01:37:10.080Z,0
2017-04-23T01:38:10.108Z,0
2017-04-23T01:39:10.084Z,0
2017-04-23T01:40:10.474Z,0
2017-04-23T01:41:10.185Z,0
2017-04-23T01:42:10.215Z,0
2017-04-23T01:43:10.555Z,0
2017-04-23T01:44:10.521Z,0
2017-04-23T01:45:10.299Z,0
2017-04-23T01:46:10.014Z,0
2017-04-23T01:47:10.668Z,0
2017-04-23T01:48:10.064Z,0
2017-04-23T01:49:10.656Z,0
2017-04-23T01:50:10.114Z,0
2017-04-23T01:51:10.758Z,0
2017-04-23T01:52:10.483Z,0
2017-04-23T01:53:10.506Z,0
2017-04-23T01:54:10.472Z,0
2017-04-23T01:55:10.553Z,0
2017-04-23T01:56:10.270Z,0
2017-04-23T01:57:10.916Z,0
2017-04-23T01:58:10.641Z,0
2017-04-23T01:59:11.244Z,0
2017-04-23T02:00:10.709Z,0
2017-04-23T02:01:11.029Z,0
2017-04-23T02:02:11.047Z,0
2017-04-23T02:03:11.070Z,0
2017-04-23T02:04:11.351Z,0
2017-04-23T02:05:10.827Z,0
2017-04-23T02:06:11.157Z,0
2017-04-23T02:07:10.562Z,0
2017-04-23T02:08:10.596Z,0
2017-04-23T02:09:10.870Z,0
2017-04-23T02:10:10.955Z,0
2017-04-23T02:11:10.978Z,0
2017-04-23T02:12:10.693Z,0
2017-04-23T02:13:11.338Z,0
2017-04-23T02:14:11.623Z,0
2017-04-23T02:15:11.089Z,0
2017-04-23T02:16:11.108Z,0
2017-04-23T02:17:11.157Z,0
2017-04-23T02:18:11.462Z,0
2017-04-23T02:19:11.441Z,0
2017-04-23T02:20:10.904Z,0
2017-04-23T02:21:11.544Z,0
2017-04-23T02:22:11.576Z,0
2017-04-23T02:23:11.283Z,0
2017-04-23T02:24:11.878Z,0
2017-04-23T02:25:11.651Z,0
2017-04-23T02:26:11.680Z,0
2017-04-23T02:27:11.391Z,0
2017-04-23T02:28:11.421Z,0
2017-04-23T02:29:11.415Z,0
2017-04-23T02:30:11.163Z,0
2017-04-23T02:31:11.800Z,0
2017-04-23T02:32:11.220Z,0
2017-04-23T02:33:11.541Z,0
2017-04-23T02:34:11.831Z,0
2017-04-23T02:35:11.598Z,0
2017-04-23T02:36:11.319Z,0
2017-04-23T02:37:11.973Z,0
2017-04-23T02:38:11.057Z,0
2017-04-23T02:39:12.262Z,0
2017-04-23T02:40:12.042Z,0
2017-04-23T02:41:12.071Z,0
2017-04-23T02:42:12.101Z,0
2017-04-23T02:43:11.818Z,0
2017-04-23T02:44:12.085Z,0
2017-04-23T02:45:11.863Z,0
2017-04-23T02:46:11.582Z,0
2017-04-23T02:47:11.913Z,0
2017-04-23T02:48:12.261Z,0
2017-04-23T02:49:11.898Z,0
2017-04-23T02:50:12.310Z,0
2017-04-23T02:51:12.018Z,0
2017-04-23T02:52:12.049Z,0
2017-04-23T02:53:12.079Z,0
2017-04-23T02:54:12.031Z,0
2017-04-23T02:55:12.130Z,0
2017-04-23T02:56:11.826Z,0
2017-04-23T02:57:12.486Z,0
2017-04-23T02:58:12.203Z,0
2017-04-23T02:59:12.794Z,0
2017-04-23T03:00:12.252Z,0
2017-04-23T03:01:12.585Z,0
2017-04-23T03:02:11.989Z,0
2017-04-23T03:03:12.019Z,0
2017-04-23T03:04:12.609Z,0
2017-04-23T03:05:12.697Z,0
2017-04-23T03:06:12.721Z,0
2017-04-23T03:07:12.430Z,0
2017-04-23T03:08:12.457Z,0
2017-04-23T03:09:12.176Z,0
2017-04-23T03:10:13.068Z,0
2017-04-23T03:11:12.860Z,0
2017-04-23T03:12:12.871Z,0
2017-04-23T03:13:12.907Z,0
2017-04-23T03:14:12.000Z,0
2017-04-23T03:15:11.956Z,0
2017-04-23T03:16:12.354Z,0
2017-04-23T03:17:12.709Z,0
2017-04-23T03:18:12.411Z,0
2017-04-23T03:19:12.761Z,0
2017-04-23T03:20:13.024Z,0
2017-04-23T03:21:13.105Z,0
2017-04-23T03:22:12.826Z,0
2017-04-23T03:23:13.163Z,0
2017-04-23T03:24:13.183Z,0
2017-04-23T03:25:12.847Z,0
2017-04-23T03:26:13.244Z,0
2017-04-23T03:27:12.640Z,0
2017-04-23T03:28:13.301Z,0
2017-04-23T03:29:13.316Z,0
2017-04-23T03:30:13.284Z,0
2017-04-23T03:31:13.057Z,0
2017-04-23T03:32:13.106Z,0
2017-04-23T03:33:13.123Z,0
2017-04-23T03:34:13.442Z,0
2017-04-23T03:35:13.408Z,0
2017-04-23T03:36:13.196Z,0
2017-04-23T03:37:13.532Z,0
2017-04-23T03:38:13.242Z,0
2017-04-23T03:39:13.271Z,0
2017-04-23T03:40:13.233Z,0
2017-04-23T03:41:13.636Z,0
2017-04-23T03:42:13.656Z,0
2017-04-23T03:43:13.360Z,0
2017-04-23T03:44:13.710Z,0
2017-04-23T03:45:13.353Z,0
2017-04-23T03:46:13.760Z,0
2017-04-23T03:47:13.467Z,0
2017-04-23T03:48:13.810Z,0
2017-04-23T03:49:13.849Z,0
2017-04-23T03:50:13.486Z,0
2017-04-23T03:51:13.571Z,0
2017-04-23T03:52:13.920Z,0
2017-04-23T03:53:13.941Z,0
2017-04-23T03:54:13.342Z,0
2017-04-23T03:55:14.238Z,0
2017-04-23T03:56:13.702Z,0
2017-04-23T03:57:13.736Z,0
2017-04-23T03:58:14.067Z,0
2017-04-23T03:59:14.106Z,0
2017-04-23T04:00:14.057Z,0
2017-04-23T04:01:13.835Z,0
2017-04-23T04:02:13.848Z,0
2017-04-23T04:03:13.570Z,0
2017-04-23T04:04:14.249Z,0
2017-04-23T04:05:14.505Z,0
2017-04-23T04:06:13.657Z,0
2017-04-23T04:07:14.294Z,0
2017-04-23T04:08:14.007Z,0
2017-04-23T04:09:14.360Z,0
2017-04-23T04:10:13.681Z,0
2017-04-23T04:11:14.083Z,0
2017-04-23T04:12:13.802Z,0
2017-04-23T04:13:14.138Z,0
2017-04-23T04:14:14.485Z,0
2017-04-23T04:15:14.437Z,0
2017-04-23T04:16:13.903Z,0
2017-04-23T04:17:14.562Z,0
2017-04-23T04:18:14.580Z,0
2017-04-23T04:19:14.287Z,0
2017-04-23T04:20:13.957Z,0
2017-04-23T04:21:14.662Z,0
2017-04-23T04:22:14.370Z,0
2017-04-23T04:23:14.419Z,0
2017-04-23T04:24:14.739Z,0
2017-04-23T04:25:14.078Z,0
2017-04-23T04:26:14.478Z,0
2017-04-23T04:27:14.826Z,0
2017-04-23T04:28:13.900Z,0
2017-04-23T04:29:14.546Z,0
2017-04-23T04:30:14.831Z,0
2017-04-23T04:31:14.302Z,0
2017-04-23T04:32:14.641Z,0
2017-04-23T04:33:14.351Z,0
2017-04-23T04:34:14.688Z,0
2017-04-23T04:35:15.280Z,0
2017-04-23T04:36:14.733Z,0
2017-04-23T04:37:14.142Z,0
2017-04-23T04:38:15.091Z,0
2017-04-23T04:39:15.132Z,0
2017-04-23T04:40:15.144Z,0
2017-04-23T04:41:15.433Z,0
2017-04-23T04:42:15.206Z,0
2017-04-23T04:43:15.239Z,0
2017-04-23T04:44:14.939Z,0
2017-04-23T04:45:14.966Z,0
2017-04-23T04:46:15.562Z,0
2017-04-23T04:47:15.337Z,0
2017-04-23T04:48:15.359Z,0
2017-04-23T04:49:15.379Z,0
2017-04-23T04:50:15.408Z,0
2017-04-23T04:51:15.372Z,0
2017-04-23T04:52:14.833Z,0
2017-04-23T04:53:15.490Z,0
2017-04-23T04:54:15.207Z,0
2017-04-23T04:55:15.539Z,0
2017-04-23T04:56:15.820Z,0
2017-04-23T04:57:15.269Z,0
2017-04-23T04:58:15.624Z,0
2017-04-23T04:59:15.638Z,0
2017-04-23T05:00:15.679Z,0
2017-04-23T05:01:15.628Z,0
2017-04-23T05:02:15.093Z,0
2017-04-23T05:03:15.749Z,0
2017-04-23T05:04:15.453Z,0
2017-04-23T05:05:15.484Z,5
2017-04-23T05:06:15.443Z,5
2017-04-23T05:07:15.224Z,5
2017-04-23T05:08:15.565Z,5
2017-04-23T05:09:15.595Z,5
2017-04-23T05:10:15.935Z,5
2017-04-23T05:11:16.208Z,5
2017-04-23T05:12:15.993Z,5
2017-04-23T05:13:15.999Z,5
2017-04-23T05:14:16.024Z,5
2017-04-23T05:15:15.426Z,5
2017-04-23T05:16:15.714Z,5
2017-04-23T05:17:15.795Z,5
2017-04-23T05:18:16.127Z,5
2017-04-23T05:19:16.167Z,5
2017-04-23T05:20:15.250Z,5
2017-04-23T05:21:16.152Z,5
2017-04-23T05:22:16.235Z,5
2017-04-23T05:23:15.954Z,5
2017-04-23T05:24:15.973Z,5
2017-04-23T05:25:15.699Z,5
2017-04-23T05:26:16.598Z,5
2017-04-23T05:27:16.368Z,5
2017-04-23T05:28:16.091Z,5
2017-04-23T05:29:16.108Z,10
2017-04-23T05:30:16.450Z,5
2017-04-23T05:31:16.729Z,10
2017-04-23T05:32:16.495Z,10
2017-04-23T05:33:16.211Z,10
2017-04-23T05:34:16.240Z,5
2017-04-23T05:35:16.567Z,5
2017-04-23T05:36:16.855Z,5
2017-04-23T05:37:16.643Z,5
2017-04-23T05:38:16.027Z,5
2017-04-23T05:39:16.679Z,5
2017-04-23T05:40:16.699Z,10
2017-04-23T05:41:16.989Z,10
2017-04-23T05:42:16.447Z,10
2017-04-23T05:43:16.791Z,10
2017-04-23T05:44:16.808Z,10
2017-04-23T05:45:16.520Z,10
2017-04-23T05:46:17.105Z,10
2017-04-23T05:47:16.894Z,10
2017-04-23T05:48:16.606Z,10
2017-04-23T05:49:16.635Z,10
2017-04-23T05:50:16.349Z,10
2017-04-23T05:51:16.613Z,10
2017-04-23T05:52:16.402Z,10
2017-04-23T05:53:17.051Z,10
2017-04-23T05:54:16.761Z,10
2017-04-23T05:55:17.101Z,10
2017-04-23T05:56:17.060Z,10
2017-04-23T05:57:17.150Z,10
2017-04-23T05:58:16.866Z,10
2017-04-23T05:59:16.903Z,10
2017-04-23T06:00:16.911Z,10
2017-04-23T06:01:16.869Z,10
2017-04-23T06:02:16.967Z,10
2017-04-23T06:03:17.346Z,10
2017-04-23T06:04:17.330Z,10
2017-04-23T06:05:17.048Z,10
2017-04-23T06:06:17.013Z,10
2017-04-23T06:07:16.789Z,10
2017-04-23T06:08:16.814Z,10
2017-04-23T06:09:17.154Z,10
2017-04-23T06:10:17.176Z,10
2017-04-23T06:11:17.752Z,10
2017-04-23T06:12:17.537Z,10
2017-04-23T06:13:17.582Z,10
2017-04-23T06:14:16.975Z,10
2017-04-23T06:15:17.307Z,10
2017-04-23T06:16:17.899Z,10
2017-04-23T06:17:16.741Z,10
2017-04-23T06:18:17.706Z,10
2017-04-23T06:19:17.735Z,10
2017-04-23T06:20:17.754Z,10
2017-04-23T06:21:18.031Z,10
2017-04-23T06:22:17.492Z,10
2017-04-23T06:23:17.844Z,10
2017-04-23T06:24:17.873Z,10
2017-04-23T06:25:17.261Z,10
2017-04-23T06:26:18.160Z,10
2017-04-23T06:27:17.629Z,10
2017-04-23T06:28:17.650Z,10
2017-04-23T06:29:17.997Z,10
2017-04-23T06:30:18.023Z,10
2017-04-23T06:31:18.297Z,10
2017-04-23T06:32:17.765Z,10
2017-04-23T06:33:18.103Z,15
2017-04-23T06:34:18.126Z,15
2017-04-23T06:35:17.831Z,15
2017-04-23T06:36:18.187Z,15
2017-04-23T06:37:18.140Z,15
2017-04-23T06:38:18.228Z,15
2017-04-23T06:39:18.261Z,15
2017-04-23T06:40:17.980Z,15
2017-04-23T06:41:18.311Z,15
2017-04-23T06:42:18.587Z,15
2017-04-23T06:43:18.068Z,15
2017-04-23T06:44:18.078Z,15
2017-04-23T06:45:18.094Z,15
2017-04-23T06:46:18.131Z,15
2017-04-23T06:47:17.781Z,15
2017-04-23T06:48:18.173Z,15
2017-04-23T06:49:18.529Z,15
2017-04-23T06:50:17.936Z,15
2017-04-23T06:51:18.254Z,15
2017-04-23T06:52:18.866Z,15
2017-04-23T06:53:18.632Z,15
2017-04-23T06:54:18.026Z,15
2017-04-23T06:55:18.362Z,15
2017-04-23T06:56:18.393Z,15
2017-04-23T06:57:18.048Z,15
2017-04-23T06:58:18.458Z,15
2017-04-23T06:59:18.167Z,15
2017-04-23T07:00:18.814Z,15
2017-04-23T07:01:18.530Z,15
2017-04-23T07:02:18.807Z,15
2017-04-23T07:03:18.895Z,15
2017-04-23T07:04:18.609Z,15
2017-04-23T07:05:18.941Z,15
2017-04-23T07:06:18.363Z,15
2017-04-23T07:07:19.246Z,15
2017-04-23T07:08:19.040Z,15
2017-04-23T07:09:17.804Z,15
2017-04-23T07:10:18.450Z,15
2017-04-23T07:11:18.794Z,15
2017-04-23T07:12:19.391Z,15
2017-04-23T07:13:19.168Z,15
2017-04-23T07:14:18.877Z,15
2017-04-23T07:15:19.218Z,15
2017-04-23T07:16:18.917Z,15
2017-04-23T07:17:19.518Z,15
2017-04-23T07:18:18.659Z,15
2017-04-23T07:19:19.327Z,10
2017-04-23T07:20:19.340Z,15
2017-04-23T07:21:19.373Z,15
2017-04-23T07:22:19.327Z,15
2017-04-23T07:23:18.799Z,15
2017-04-23T07:24:19.450Z,15
2017-04-23T07:25:19.161Z,15
2017-04-23T07:26:19.509Z,15
2017-04-23T07:27:19.774Z,15
2017-04-23T07:28:19.554Z,15
2017-04-23T07:29:18.648Z,15
2017-04-23T07:30:19.304Z,15
2017-04-23T07:31:19.641Z,15
2017-04-23T07:32:19.282Z,15
2017-04-23T07:33:19.376Z,15
2017-04-23T07:34:19.400Z,15
2017-04-23T07:35:19.740Z,15
2017-04-23T07:36:19.140Z,15
2017-04-23T07:37:19.729Z,15
2017-04-23T07:38:19.821Z,15
2017-04-23T07:39:19.231Z,15
2017-04-23T07:40:19.556Z,20
2017-04-23T07:41:19.284Z,20
2017-04-23T07:42:19.578Z,20
2017-04-23T07:43:19.326Z,25
2017-04-23T07:44:19.670Z,20
2017-04-23T07:45:19.376Z,25
2017-04-23T07:46:19.728Z,25
2017-04-23T07:47:20.316Z,25
2017-04-23T07:48:20.105Z,25
2017-04-23T07:49:19.803Z,25
2017-04-23T07:50:20.143Z,25
2017-04-23T07:51:20.186Z,25
2017-04-23T07:52:19.509Z,20
2017-04-23T07:53:19.912Z,25
2017-04-23T07:54:19.931Z,30
2017-04-23T07:55:20.272Z,35
2017-04-23T07:56:19.987Z,30
2017-04-23T07:57:20.265Z,30
2017-04-23T07:58:20.358Z,25
2017-04-23T07:59:20.386Z,30
2017-04-23T08:00:20.118Z,30
2017-04-23T08:01:20.151Z,35
2017-04-23T08:02:20.704Z,30
2017-04-23T08:03:20.485Z,30
2017-04-23T08:04:20.201Z,35
2017-04-23T08:05:20.246Z,35
2017-04-23T08:06:20.564Z,40
2017-04-23T08:07:20.252Z,40
2017-04-23T08:08:20.000Z,45
2017-04-23T08:09:20.018Z,45
2017-04-23T08:10:20.679Z,35
2017-04-23T08:11:20.707Z,25
2017-04-23T08:12:20.980Z,20
2017-04-23T08:13:20.755Z,20
2017-04-23T08:14:20.778Z,20
2017-04-23T08:15:20.818Z,20
2017-04-23T08:16:20.522Z,20
2017-04-23T08:17:20.487Z,15
2017-04-23T08:18:20.881Z,20
2017-04-23T08:19:20.598Z,20
2017-04-23T08:20:20.946Z,20
2017-04-23T08:21:20.654Z,20
2017-04-23T08:22:20.927Z,20
2017-04-23T08:23:20.708Z,20
2017-04-23T08:24:20.731Z,20
2017-04-23T08:25:20.802Z,20
2017-04-23T08:26:20.790Z,25
2017-04-23T08:27:21.062Z,25
2017-04-23T08:28:21.156Z,25
2017-04-23T08:29:21.188Z,35
2017-04-23T08:30:21.237Z,35
2017-04-23T08:31:20.950Z,40
2017-04-23T08:32:20.902Z,40
2017-04-23T08:33:20.985Z,30
2017-04-23T08:34:21.320Z,30
2017-04-23T08:35:21.333Z,25
2017-04-23T08:36:21.409Z,20
2017-04-23T08:37:21.650Z,20
2017-04-23T08:38:21.463Z,20
2017-04-23T08:39:21.453Z,20
2017-04-23T08:40:21.482Z,20
2017-04-23T08:41:20.902Z,20
2017-04-23T08:42:21.782Z,20
2017-04-23T08:43:21.259Z,20
2017-04-23T08:44:20.985Z,25
2017-04-23T08:45:21.605Z,20
2017-04-23T08:46:21.643Z,20
2017-04-23T08:47:21.608Z,20
2017-04-23T08:48:21.386Z,20
2017-04-23T08:49:21.708Z,20
2017-04-23T08:50:21.432Z,20
2017-04-23T08:51:21.774Z,20
2017-04-23T08:52:22.065Z,20
2017-04-23T08:53:21.830Z,15
2017-04-23T08:54:21.553Z,15
2017-04-23T08:55:21.256Z,20
2017-04-23T08:56:21.600Z,25
2017-04-23T08:57:21.565Z,30
2017-04-23T08:58:21.650Z,30
2017-04-23T08:59:21.679Z,30
2017-04-23T09:00:21.726Z,30
2017-04-23T09:01:21.736Z,35
2017-04-23T09:02:22.009Z,40
2017-04-23T09:03:21.778Z,50
2017-04-23T09:04:22.131Z,55
2017-04-23T09:05:21.541Z,55
2017-04-23T09:06:21.548Z,60
2017-04-23T09:07:22.452Z,60
2017-04-23T09:08:21.606Z,60
2017-04-23T09:09:22.270Z,60
2017-04-23T09:10:21.342Z,55
2017-04-23T09:11:21.711Z,55
2017-04-23T09:12:22.025Z,50
2017-04-23T09:13:22.309Z,55
2017-04-23T09:14:22.395Z,55
2017-04-23T09:15:22.422Z,55
2017-04-23T09:16:21.512Z,50
2017-04-23T09:17:22.156Z,50
2017-04-23T09:18:22.758Z,50
2017-04-23T09:19:22.218Z,55
2017-04-23T09:20:21.614Z,55
2017-04-23T09:21:21.971Z,55
2017-04-23T09:22:22.303Z,55
2017-04-23T09:23:22.272Z,60
2017-04-23T09:24:22.346Z,65
2017-04-23T09:25:22.071Z,65
2017-04-23T09:26:22.111Z,65
2017-04-23T09:27:22.740Z,60
2017-04-23T09:28:22.392Z,60
2017-04-23T09:29:22.490Z,65
2017-04-23T09:30:22.510Z,70
2017-04-23T09:31:22.542Z,65
2017-04-23T09:32:22.908Z,60
2017-04-23T09:33:23.189Z,65
2017-04-23T09:34:22.628Z,70
2017-04-23T09:35:22.962Z,65
2017-04-23T09:36:22.680Z,65
2017-04-23T09:37:23.015Z,55
2017-04-23T09:38:22.673Z,60
2017-04-23T09:39:22.761Z,60
2017-04-23T09:40:22.469Z,55
2017-04-23T09:41:22.818Z,45
2017-04-23T09:42:22.212Z,45
2017-04-23T09:43:22.805Z,45
2017-04-23T09:44:22.884Z,45
2017-04-23T09:45:22.918Z,50
2017-04-23T09:46:22.954Z,50
2017-04-23T09:47:22.970Z,55
2017-04-23T09:48:23.256Z,55
2017-04-23T09:49:23.346Z,60
2017-04-23T09:50:23.056Z,50
2017-04-23T09:51:23.090Z,50
2017-04-23T09:52:23.167Z,60
2017-04-23T09:53:23.392Z,65
2017-04-23T09:54:22.848Z,65
2017-04-23T09:55:23.197Z,60
2017-04-23T09:56:23.226Z,60
2017-04-23T09:57:23.559Z,60
2017-04-23T09:58:23.848Z,60
2017-04-23T09:59:23.624Z,65
2017-04-23T10:00:23.049Z,60
2017-04-23T10:01:23.354Z,65
2017-04-23T10:02:22.759Z,60
2017-04-23T10:03:23.980Z,55
2017-04-23T10:04:23.763Z,60
2017-04-23T10:05:23.469Z,60
2017-04-23T10:06:23.493Z,60
2017-04-23T10:07:23.210Z,65
2017-04-23T10:08:24.124Z,65
2017-04-23T10:09:23.567Z,70
2017-04-23T10:10:23.600Z,60
2017-04-23T10:11:23.717Z,55
2017-04-23T10:12:23.969Z,55
2017-04-23T10:13:23.946Z,60
2017-04-23T10:14:23.408Z,60
2017-04-23T10:15:24.061Z,60
2017-04-23T10:16:23.773Z,60
2017-04-23T10:17:23.492Z,65
2017-04-23T10:18:24.398Z,60
2017-04-23T10:19:23.538Z,65
2017-04-23T10:20:24.198Z,65
2017-04-23T10:21:24.216Z,65
2017-04-23T10:22:23.933Z,65
2017-04-23T10:23:24.534Z,65
2017-04-23T10:24:23.990Z,60
2017-04-23T10:25:24.336Z,75
2017-04-23T10:26:24.045Z,80
2017-04-23T10:27:24.064Z,90
2017-04-23T10:28:24.042Z,70
2017-04-23T10:29:24.134Z,70
2017-04-23T10:30:24.156Z,70
2017-04-23T10:31:24.181Z,65
2017-04-23T10:32:24.523Z,65
2017-04-23T10:33:24.834Z,65
2017-04-23T10:34:24.265Z,65
2017-04-23T10:35:23.987Z,65
2017-04-23T10:36:24.632Z,60
2017-04-23T10:37:24.032Z,55
2017-04-23T10:38:24.941Z,55
2017-04-23T10:39:24.090Z,45
2017-04-23T10:40:24.423Z,45
2017-04-23T10:41:24.769Z,55
2017-04-23T10:42:24.184Z,55
2017-04-23T10:43:24.761Z,60
2017-04-23T10:44:24.569Z,60
2017-04-23T10:45:24.883Z,55
2017-04-23T10:46:24.908Z,50
2017-04-23T10:47:24.323Z,50
2017-04-23T10:48:25.212Z,50
2017-04-23T10:49:24.373Z,50
2017-04-23T10:50:24.709Z,45
2017-04-23T10:51:24.734Z,45
2017-04-23T10:52:24.799Z,45
2017-04-23T10:53:25.376Z,45
2017-04-23T10:54:24.813Z,45
2017-04-23T10:55:25.174Z,50
2017-04-23T10:56:24.558Z,45
2017-04-23T10:57:25.220Z,50
2017-04-23T10:58:25.243Z,50
2017-04-23T10:59:25.214Z,55
2017-04-23T11:00:25.291Z,65
2017-04-23T11:01:25.003Z,75
2017-04-23T11:02:25.035Z,60
2017-04-23T11:03:24.443Z,60
2017-04-23T11:04:25.377Z,60
2017-04-23T11:05:25.429Z,60
2017-04-23T11:06:25.145Z,65
2017-04-23T11:07:25.190Z,70
2017-04-23T11:08:25.207Z,95
2017-04-23T11:09:25.480Z,100
2017-04-23T11:10:25.249Z,95
2017-04-23T11:11:25.619Z,95
2017-04-23T11:12:25.314Z,105
2017-04-23T11:13:25.030Z,120
2017-04-23T11:14:25.619Z,135
2017-04-23T11:15:25.728Z,140
2017-04-23T11:16:25.421Z,115
2017-04-23T11:17:25.449Z,80
2017-04-23T11:18:25.486Z,85
2017-04-23T11:19:26.069Z,85
2017-04-23T11:20:25.532Z,110
2017-04-23T11:21:25.869Z,50
2017-04-23T11:22:25.590Z,45
2017-04-23T11:23:25.926Z,50
2017-04-23T11:24:26.215Z,50
2017-04-23T11:25:26.002Z,55
2017-04-23T11:26:25.709Z,60
2017-04-23T11:27:25.735Z,65
2017-04-23T11:28:26.078Z,70
2017-04-23T11:29:26.355Z,70
2017-04-23T11:30:26.123Z,65
2017-04-23T11:31:25.540Z,65
2017-04-23T11:32:26.180Z,65
2017-04-23T11:33:26.213Z,70
2017-04-23T11:34:26.491Z,125
2017-04-23T11:35:26.264Z,185
2017-04-23T11:36:26.293Z,200
2017-04-23T11:37:26.317Z,185
2017-04-23T11:38:25.722Z,90
2017-04-23T11:39:26.322Z,80
2017-04-23T11:40:26.096Z,195
2017-04-23T11:41:26.428Z,60
2017-04-23T11:42:26.144Z,80
2017-04-23T11:43:26.481Z,90
2017-04-23T11:44:26.462Z,230
2017-04-23T11:45:26.235Z,265
2017-04-23T11:46:26.571Z,250
2017-04-23T11:47:25.984Z,250
2017-04-23T11:48:26.314Z,250
2017-04-23T11:49:26.600Z,255
2017-04-23T11:50:26.683Z,160
2017-04-23T11:51:26.703Z,210
2017-04-23T11:52:26.424Z,260
2017-04-23T11:53:26.496Z,260
2017-04-23T11:54:27.033Z,260
2017-04-23T11:55:26.510Z,260
2017-04-23T11:56:26.231Z,260
2017-04-23T11:57:26.259Z,260
2017-04-23T11:58:26.908Z,250
2017-04-23T11:59:27.194Z,245
2017-04-23T12:00:26.662Z,245
2017-04-23T12:01:26.995Z,245
2017-04-23T12:02:26.391Z,245
2017-04-23T12:03:26.112Z,250
2017-04-23T12:04:27.026Z,260
2017-04-23T12:05:26.798Z,285
2017-04-23T12:06:26.525Z,275
2017-04-23T12:07:26.555Z,255
2017-04-23T12:08:26.896Z,240
2017-04-23T12:09:27.185Z,250
2017-04-23T12:10:26.642Z,260
2017-04-23T12:11:27.293Z,260
2017-04-23T12:12:26.731Z,265
2017-04-23T12:13:27.356Z,250
2017-04-23T12:14:27.637Z,235
2017-04-23T12:15:27.101Z,250
2017-04-23T12:16:26.825Z,270
2017-04-23T12:17:27.495Z,260
2017-04-23T12:18:27.200Z,245
2017-04-23T12:19:27.797Z,255
2017-04-23T12:20:27.262Z,245
2017-04-23T12:21:27.601Z,230
2017-04-23T12:22:27.324Z,240
2017-04-23T12:23:27.040Z,245
2017-04-23T12:24:27.632Z,240
2017-04-23T12:25:27.405Z,235
2017-04-23T12:26:27.449Z,235
2017-04-23T12:27:26.849Z,235
2017-04-23T12:28:27.556Z,240
2017-04-23T12:29:27.801Z,245
2017-04-23T12:30:27.572Z,265
2017-04-23T12:31:27.597Z,255
2017-04-23T12:32:27.318Z,225
2017-04-23T12:33:27.990Z,235
2017-04-23T12:34:28.284Z,230
2017-04-23T12:35:27.789Z,220
2017-04-23T12:36:27.814Z,220
2017-04-23T12:37:27.598Z,205
2017-04-23T12:38:28.198Z,220
2017-04-23T12:39:28.703Z,245
2017-04-23T12:40:27.981Z,265
2017-04-23T12:41:28.297Z,260
2017-04-23T12:42:27.982Z,240
2017-04-23T12:43:28.092Z,230
2017-04-23T12:44:28.051Z,245
2017-04-23T12:45:28.436Z,265
2017-04-23T12:46:28.421Z,250
2017-04-23T12:47:28.505Z,235
2017-04-23T12:48:28.674Z,260
2017-04-23T12:49:27.915Z,305
2017-04-23T12:50:28.381Z,355
2017-04-23T12:51:28.030Z,285
2017-04-23T12:52:28.337Z,260
2017-04-23T12:53:28.758Z,250
2017-04-23T12:54:28.683Z,280
2017-04-23T12:55:28.739Z,305
2017-04-23T12:56:28.457Z,250
2017-04-23T12:57:28.419Z,240
2017-04-23T12:58:28.853Z,235
2017-04-23T12:59:29.116Z,250
2017-04-23T13:00:28.616Z,270
2017-04-23T13:01:28.964Z,255
2017-04-23T13:02:28.937Z,260
2017-04-23T13:03:28.726Z,250
2017-04-23T13:04:29.319Z,270
2017-04-23T13:05:28.755Z,255
2017-04-23T13:06:28.153Z,245
2017-04-23T13:07:29.150Z,240
2017-04-23T13:08:28.875Z,215
2017-04-23T13:09:29.431Z,190
2017-04-23T13:10:28.958Z,175
2017-04-23T13:11:29.241Z,170
2017-04-23T13:12:29.264Z,175
2017-04-23T13:13:29.302Z,170
2017-04-23T13:14:28.982Z,180
2017-04-23T13:15:29.106Z,195
2017-04-23T13:16:29.396Z,205
2017-04-23T13:17:29.145Z,190
2017-04-23T13:18:28.882Z,170
2017-04-23T13:19:29.184Z,165
2017-04-23T13:20:29.562Z,155
2017-04-23T13:21:29.279Z,160
2017-04-23T13:22:29.933Z,160
2017-04-23T13:23:29.621Z,160
2017-04-23T13:24:29.610Z,165
2017-04-23T13:25:29.736Z,160
2017-04-23T13:26:29.455Z,155
2017-04-23T13:27:29.761Z,155
2017-04-23T13:28:29.537Z,90
2017-04-23T13:29:30.114Z,155
2017-04-23T13:30:28.950Z,165
2017-04-23T13:31:29.890Z,170
2017-04-23T13:32:29.352Z,175
2017-04-23T13:33:29.376Z,170
2017-04-23T13:34:30.669Z,165
2017-04-23T13:35:29.475Z,130
2017-04-23T13:36:29.791Z,120
2017-04-23T13:37:29.838Z,160
2017-04-23T13:38:29.549Z,125
2017-04-23T13:39:29.860Z,155
2017-04-23T13:40:30.523Z,115
2017-04-23T13:41:30.026Z,145
2017-04-23T13:42:30.000Z,90
2017-04-23T13:43:29.979Z,135
2017-04-23T13:44:30.556Z,130
2017-04-23T13:45:30.326Z,130
2017-04-23T13:46:30.411Z,75
2017-04-23T13:47:30.451Z,80
2017-04-23T13:48:30.147Z,95
2017-04-23T13:49:29.889Z,130
2017-04-23T13:50:30.847Z,60
2017-04-23T13:51:29.978Z,100
2017-04-23T13:52:29.975Z,55
2017-04-23T13:53:30.747Z,120
2017-04-23T13:54:30.732Z,125
2017-04-23T13:55:30.594Z,110
2017-04-23T13:56:30.142Z,120
2017-04-23T13:57:30.459Z,120
2017-04-23T13:58:30.681Z,125
2017-04-23T13:59:30.621Z,125
2017-04-23T14:00:31.149Z,125
2017-04-23T14:01:30.343Z,120
2017-04-23T14:02:30.962Z,125
2017-04-23T14:03:30.682Z,120
2017-04-23T14:04:30.080Z,105
2017-04-23T14:05:30.866Z,65
2017-04-23T14:06:31.086Z,55
2017-04-23T14:07:30.546Z,65
2017-04-23T14:08:30.791Z,80
2017-04-23T14:09:31.419Z,85
2017-04-23T14:10:30.565Z,75
2017-04-23T14:11:31.130Z,65
2017-04-23T14:12:31.399Z,65
2017-04-23T14:13:32.239Z,125
2017-04-23T14:14:31.998Z,100
2017-04-23T14:15:30.929Z,115
2017-04-23T14:16:31.426Z,80
2017-04-23T14:17:31.922Z,115
2017-04-23T14:18:30.897Z,110
2017-04-23T14:19:30.817Z,110
2017-04-23T14:20:32.182Z,110
2017-04-23T14:21:31.897Z,110
2017-04-23T14:22:31.567Z,105